TAF and METAR

METAR for Keetmanshoop Airport

FYKT 020800Z 36008KT CAVOK 18/M03 Q1027
Report created 2. jul 10:00
wind 8 knots from N (360°) Clear sky Temperature 18° with dewpoint at -3° (Humidity 23.78%) Pressure 1027 hPa

TAF for Keetmanshoop Airport

TAF FYKT 020400Z 0206/0306 00000KT CAVOK BECMG 0209/0211 02007KT
Report created 2. jul 06:00

between 2. jul 08:00 - 3. jul 08:00

wind 0 knots from N (000°) Clear sky

becoming between 2. jul 11:00 - 2. jul 13:00

wind 7 knots from NNE (020°)